
Distance (Route):
Temperature : 10.2°C
Humidity : 56.9%
Pressure : 0hPa| Receiver | Frames | First received | Last received |
|---|---|---|---|
| LZ4TU-5 | 168 | 2026-09-03 23:17:56 | 2026-09-04 00:52:18 |
| Receiver | Date | Latitude | Longitude | Direction | Speed | Altitude | Climb | Temperature | Humidity | Pressure | Voltage | Killtimer | Uptime | BKT | XDATA |
|---|---|---|---|---|---|---|---|---|---|---|---|---|---|---|---|
| LZ4TU-5 | 2026-09-04 00:52:18 | 43.90129 | 23.05522 | 157° | 35km/h | 2185m | -14.3m/s | 10.2°C | 56.9% | 0hPa | 0V | 00:00:00 | 00:00:00 | 00:00:00 | |
| LZ4TU-5 | 2026-09-04 00:52:13 | 43.90171 | 23.05496 | 158° | 35km/h | 2257m | -14.4m/s | 9.5°C | 58.6% | 0hPa | 0V | 00:00:00 | 00:00:00 | 00:00:00 | |
| LZ4TU-5 | 2026-09-04 00:52:08 | 43.90209 | 23.05469 | 157° | 33km/h | 2325m | -14.5m/s | 8.9°C | 61.3% | 0hPa | 0V | 00:00:00 | 00:00:00 | 00:00:00 | |
| LZ4TU-5 | 2026-09-04 00:52:04 | 43.90239 | 23.05451 | 156° | 35km/h | 2384m | -14.4m/s | 8.3°C | 63.5% | 0hPa | 0V | 00:00:00 | 00:00:00 | 00:00:00 | |
| LZ4TU-5 | 2026-09-04 00:51:59 | 43.90276 | 23.05423 | 155° | 35km/h | 2458m | -14.4m/s | 7.8°C | 65.2% | 0hPa | 0V | 00:00:00 | 00:00:00 | 00:00:00 | |
| LZ4TU-5 | 2026-09-04 00:51:54 | 43.90316 | 23.05401 | 154° | 31km/h | 2530m | -14.4m/s | 7.2°C | 66.2% | 0hPa | 0V | 00:00:00 | 00:00:00 | 00:00:00 | |
| LZ4TU-5 | 2026-09-04 00:51:49 | 43.90352 | 23.05374 | 155° | 31km/h | 2599m | -14.4m/s | 6.5°C | 68.9% | 0hPa | 0V | 00:00:00 | 00:00:00 | 00:00:00 | |
| LZ4TU-5 | 2026-09-04 00:51:45 | 43.90383 | 23.05357 | 155° | 31km/h | 2658m | -14.5m/s | 5.9°C | 71.0% | 0hPa | 0V | 00:00:00 | 00:00:00 | 00:00:00 | |
| LZ4TU-5 | 2026-09-04 00:51:41 | 43.90411 | 23.05338 | 153° | 31km/h | 2715m | -14.5m/s | 5.4°C | 72.7% | 0hPa | 0V | 00:00:00 | 00:00:00 | 00:00:00 | |
| LZ4TU-5 | 2026-09-04 00:51:36 | 43.90450 | 23.05314 | 151° | 31km/h | 2780m | -14.6m/s | 4.7°C | 75.0% | 0hPa | 0V | 00:00:00 | 00:00:00 | 00:00:00 | |
| LZ4TU-5 | 2026-09-04 00:51:32 | 43.90476 | 23.05290 | 149° | 31km/h | 2833m | -14.6m/s | 4.2°C | 77.3% | 0hPa | 0V | 00:00:00 | 00:00:00 | 00:00:00 | |
| LZ4TU-5 | 2026-09-04 00:51:27 | 43.90508 | 23.05257 | 144° | 31km/h | 2909m | -14.7m/s | 3.7°C | 77.9% | 0hPa | 0V | 00:00:00 | 00:00:00 | 00:00:00 | |
| LZ4TU-5 | 2026-09-04 00:51:23 | 43.90533 | 23.05231 | 143° | 31km/h | 2969m | -14.8m/s | 3.1°C | 79.9% | 0hPa | 0V | 00:00:00 | 00:00:00 | 00:00:00 | |
| LZ4TU-5 | 2026-09-04 00:51:18 | 43.90564 | 23.05198 | 140° | 31km/h | 3042m | -14.9m/s | 2.4°C | 82.6% | 0hPa | 0V | 00:00:00 | 00:00:00 | 00:00:00 | |
| LZ4TU-5 | 2026-09-04 00:51:14 | 43.90594 | 23.05163 | 135° | 29km/h | 3113m | -14.9m/s | 1.8°C | 83.2% | 0hPa | 0V | 00:00:00 | 00:00:00 | 00:00:00 | |
| LZ4TU-5 | 2026-09-04 00:51:08 | 43.90623 | 23.05123 | 136° | 29km/h | 3170m | -14.9m/s | 1.2°C | 82.4% | 0hPa | 0V | 00:00:00 | 00:00:00 | 00:00:00 | |
| LZ4TU-5 | 2026-09-04 00:51:03 | 43.90650 | 23.05088 | 140° | 31km/h | 3247m | -14.8m/s | 0.6°C | 83.0% | 0hPa | 0V | 00:00:00 | 00:00:00 | 00:00:00 | |
| LZ4TU-5 | 2026-09-04 00:50:58 | 43.90680 | 23.05054 | 142° | 33km/h | 3325m | -14.8m/s | 0.4°C | 78.7% | 0hPa | 0V | 00:00:00 | 00:00:00 | 00:00:00 | |
| LZ4TU-5 | 2026-09-04 00:50:54 | 43.90705 | 23.05024 | 141° | 35km/h | 3388m | -15.2m/s | 0.1°C | 76.1% | 0hPa | 0V | 00:00:00 | 00:00:00 | 00:00:00 | |
| LZ4TU-5 | 2026-09-04 00:50:49 | 43.90736 | 23.04986 | 140° | 35km/h | 3469m | -15.1m/s | -0.4°C | 73.9% | 0hPa | 0V | 00:00:00 | 00:00:00 | 00:00:00 | |
| LZ4TU-5 | 2026-09-04 00:50:44 | 43.90767 | 23.04946 | 138° | 33km/h | 3552m | -15.6m/s | -0.2°C | 68.9% | 0hPa | 0V | 00:00:00 | 00:00:00 | 00:00:00 | |
| LZ4TU-5 | 2026-09-04 00:50:40 | 43.90791 | 23.04917 | 138° | 33km/h | 3620m | -15.7m/s | 0.0°C | 65.4% | 0hPa | 0V | 00:00:00 | 00:00:00 | 00:00:00 | |
| LZ4TU-5 | 2026-09-04 00:50:35 | 43.90819 | 23.04881 | 142° | 29km/h | 3702m | -15.8m/s | -0.7°C | 68.4% | 0hPa | 0V | 00:00:00 | 00:00:00 | 00:00:00 | |
| LZ4TU-5 | 2026-09-04 00:43:20 | 43.95687 | 22.99174 | 148° | 58km/h | 11535m | -22.6m/s | -51.3°C | 2.2% | 0hPa | 0V | 00:00:00 | 00:00:00 | 00:00:00 | |
| LZ4TU-5 | 2026-09-04 00:43:16 | 43.95733 | 22.99130 | 144° | 49km/h | 11627m | -22.5m/s | -50.1°C | 0% | 0hPa | 0V | 00:00:00 | 00:00:00 | 00:00:00 | |
| LZ4TU-5 | 2026-09-04 00:41:33 | 43.96724 | 22.97346 | 128° | 62km/h | 14230m | -27.1m/s | -51.3°C | 0.0% | 0hPa | 0V | 00:00:00 | 00:00:00 | 00:00:00 | |
| LZ4TU-5 | 2026-09-04 00:41:28 | 43.96769 | 22.97263 | 124° | 57km/h | 14368m | -27.0m/s | -51.7°C | 0.0% | 0hPa | 0V | 00:00:00 | 00:00:00 | 00:00:00 | |
| LZ4TU-5 | 2026-09-04 00:41:22 | 43.96812 | 22.97163 | 118° | 47km/h | 14524m | -27.3m/s | -52.7°C | 0.0% | 0hPa | 0V | 00:00:00 | 00:00:00 | 00:00:00 | |
| LZ4TU-5 | 2026-09-04 00:41:17 | 43.96832 | 22.97103 | 110° | 35km/h | 14667m | -28.0m/s | -53.5°C | 0.0% | 0hPa | 0V | 00:00:00 | 00:00:00 | 00:00:00 | |
| LZ4TU-5 | 2026-09-04 00:41:12 | 43.96843 | 22.97053 | 105° | 31km/h | 14813m | -28.5m/s | -54.6°C | 0% | 0hPa | 0V | 00:00:00 | 00:00:00 | 00:00:00 | |
| LZ4TU-5 | 2026-09-04 00:39:28 | 43.97215 | 22.95680 | 90° | 46km/h | 17943m | -32.8m/s | -55.3°C | 0.0% | 0hPa | 0V | 00:00:00 | 00:00:00 | 00:00:00 | |
| LZ4TU-5 | 2026-09-04 00:39:23 | 43.97215 | 22.95601 | 92° | 35km/h | 18101m | -33.4m/s | -55.9°C | 0.0% | 0hPa | 0V | 00:00:00 | 00:00:00 | 00:00:00 | |
| LZ4TU-5 | 2026-09-04 00:37:40 | 43.97301 | 22.95029 | 198° | 16km/h | 22057m | -44.9m/s | -52.6°C | 0.0% | 0hPa | 0V | 00:00:00 | 00:00:00 | 00:00:00 | |
| LZ4TU-5 | 2026-09-04 00:37:35 | 43.97312 | 22.95045 | 285° | 22km/h | 22273m | -44.6m/s | -52.9°C | 0.0% | 0hPa | 0V | 00:00:00 | 00:00:00 | 00:00:00 | |
| LZ4TU-5 | 2026-09-04 00:35:47 | 43.97260 | 22.95149 | 305° | 13km/h | 29461m | -75.5m/s | -42.1°C | 0.0% | 0hPa | 0V | 00:00:00 | 00:00:00 | 00:00:00 | |
| LZ4TU-5 | 2026-09-04 00:35:42 | 43.97247 | 22.95168 | 302° | 20km/h | 29826m | -67.0m/s | -42.5°C | 0.0% | 0hPa | 0V | 00:00:00 | 00:00:00 | 00:00:00 | |
| LZ4TU-5 | 2026-09-04 00:35:37 | 43.97227 | 22.95210 | 325° | 35km/h | 30139m | -53.1m/s | -43.7°C | 0.0% | 0hPa | 0V | 00:00:00 | 00:00:00 | 00:00:00 | |
| LZ4TU-5 | 2026-09-04 00:33:55 | 43.97078 | 22.95431 | 244° | 16km/h | 29642m | 8.4m/s | -43.9°C | 0.0% | 0hPa | 0V | 00:00:00 | 00:00:00 | 00:00:00 | |
| LZ4TU-5 | 2026-09-04 00:33:50 | 43.97087 | 22.95412 | 47° | 5km/h | 29605m | 6.9m/s | -43.9°C | 0.0% | 0hPa | 0V | 00:00:00 | 00:00:00 | 00:00:00 | |
| LZ4TU-5 | 2026-09-04 00:32:09 | 43.97079 | 22.95355 | 110° | 13km/h | 28905m | 7.5m/s | -44.2°C | 0.0% | 0hPa | 0V | 00:00:00 | 00:00:00 | 00:00:00 | |
| LZ4TU-5 | 2026-09-04 00:32:04 | 43.97108 | 22.95353 | 164° | 15km/h | 28870m | 4.6m/s | -44.2°C | 0.0% | 0hPa | 0V | 00:00:00 | 00:00:00 | 00:00:00 | |
| LZ4TU-5 | 2026-09-04 00:30:19 | 43.96998 | 22.95322 | 36° | 35km/h | 28135m | 1.4m/s | -45.0°C | 0.0% | 0hPa | 0V | 00:00:00 | 00:00:00 | 00:00:00 | |
| LZ4TU-5 | 2026-09-04 00:30:14 | 43.97011 | 22.95295 | 176° | 42km/h | 28093m | 7.2m/s | -45.2°C | 0.0% | 0hPa | 0V | 00:00:00 | 00:00:00 | 00:00:00 | |
| LZ4TU-5 | 2026-09-04 00:28:21 | 43.96882 | 22.94888 | 57° | 11km/h | 27284m | 10.8m/s | -46.1°C | 0% | 0hPa | 0V | 00:00:00 | 00:00:00 | 00:00:00 | |
| LZ4TU-5 | 2026-09-04 00:26:37 | 43.96665 | 22.94404 | 322° | 22km/h | 26585m | 5.1m/s | -49.0°C | 0.0% | 0hPa | 0V | 00:00:00 | 00:00:00 | 00:00:00 | |
| LZ4TU-5 | 2026-09-04 00:26:33 | 43.96631 | 22.94416 | 361° | 31km/h | 26552m | 8.0m/s | -49.1°C | 0.0% | 0hPa | 0V | 00:00:00 | 00:00:00 | 00:00:00 | |
| LZ4TU-5 | 2026-09-04 00:24:49 | 43.96501 | 22.94786 | 52° | 9km/h | 25872m | 4.8m/s | -50.2°C | 0.0% | 0hPa | 0V | 00:00:00 | 00:00:00 | 00:00:00 | |
| LZ4TU-5 | 2026-09-04 00:24:44 | 43.96500 | 22.94775 | 0° | 0km/h | 25838m | 7.2m/s | -50.3°C | 0.0% | 0hPa | 0V | 00:00:00 | 00:00:00 | 00:00:00 | |
| LZ4TU-5 | 2026-09-04 00:23:02 | 43.96584 | 22.95480 | 143° | 11km/h | 25137m | 5.7m/s | -50.0°C | 0.0% | 0hPa | 0V | 00:00:00 | 00:00:00 | 00:00:00 | |
| LZ4TU-5 | 2026-09-04 00:22:58 | 43.96579 | 22.95506 | 259° | 27km/h | 25101m | 6.8m/s | -50.1°C | 0.0% | 0hPa | 0V | 00:00:00 | 00:00:00 | 00:00:00 | |
| LZ4TU-5 | 2026-09-04 00:22:53 | 43.96593 | 22.95523 | 138° | 15km/h | 25069m | 5.9m/s | -50.0°C | 0.0% | 0hPa | 0V | 00:00:00 | 00:00:00 | 00:00:00 | |
| LZ4TU-5 | 2026-09-04 00:21:12 | 43.96523 | 22.95780 | 102° | 9km/h | 24412m | 5.7m/s | -51.2°C | 0.0% | 0hPa | 0V | 00:00:00 | 00:00:00 | 00:00:00 | |
| LZ4TU-5 | 2026-09-04 00:21:06 | 43.96523 | 22.95777 | 324° | 13km/h | 24380m | 7.3m/s | -51.2°C | 0.0% | 0hPa | 0V | 00:00:00 | 00:00:00 | 00:00:00 | |
| LZ4TU-5 | 2026-09-04 00:19:15 | 43.96489 | 22.96111 | 190° | 16km/h | 23658m | 7.1m/s | -53.4°C | 0.0% | 0hPa | 0V | 00:00:00 | 00:00:00 | 00:00:00 | |
| LZ4TU-5 | 2026-09-04 00:19:10 | 43.96499 | 22.96122 | 245° | 13km/h | 23626m | 4.7m/s | -53.3°C | 0.0% | 0hPa | 0V | 00:00:00 | 00:00:00 | 00:00:00 | |
| LZ4TU-5 | 2026-09-04 00:17:40 | 43.96577 | 22.96466 | 215° | 22km/h | 23028m | 6.7m/s | -53.9°C | 0% | 0hPa | 0V | 00:00:00 | 00:00:00 | 00:00:00 | |
| LZ4TU-5 | 2026-09-04 00:17:35 | 43.96592 | 22.96482 | 212° | 24km/h | 22993m | 7.2m/s | -53.9°C | 0.0% | 0hPa | 0V | 00:00:00 | 00:00:00 | 00:00:00 | |
| LZ4TU-5 | 2026-09-04 00:17:25 | 43.96640 | 22.96484 | 140° | 22km/h | 22928m | 6.4m/s | -54.2°C | 0.0% | 0hPa | 0V | 00:00:00 | 00:00:00 | 00:00:00 | |
| LZ4TU-5 | 2026-09-04 00:17:20 | 43.96667 | 22.96474 | 171° | 22km/h | 22894m | 4.7m/s | -54.2°C | 0.0% | 0hPa | 0V | 00:00:00 | 00:00:00 | 00:00:00 | |
| LZ4TU-5 | 2026-09-04 00:15:49 | 43.96593 | 22.96492 | 246° | 26km/h | 22330m | 6.2m/s | -54.7°C | 0.0% | 0hPa | 0V | 00:00:00 | 00:00:00 | 00:00:00 | |
| LZ4TU-5 | 2026-09-04 00:15:45 | 43.96599 | 22.96509 | 278° | 7km/h | 22306m | 5.7m/s | -54.7°C | 0.0% | 0hPa | 0V | 00:00:00 | 00:00:00 | 00:00:00 | |
| LZ4TU-5 | 2026-09-04 00:15:35 | 43.96634 | 22.96557 | 213° | 22km/h | 22245m | 6.1m/s | -54.9°C | 0.0% | 0hPa | 0V | 00:00:00 | 00:00:00 | 00:00:00 | |
| LZ4TU-5 | 2026-09-04 00:15:30 | 43.96655 | 22.96577 | 207° | 27km/h | 22216m | 7.8m/s | -55.4°C | 0.0% | 0hPa | 0V | 00:00:00 | 00:00:00 | 00:00:00 | |
| LZ4TU-5 | 2026-09-04 00:14:00 | 43.96973 | 22.96353 | 257° | 11km/h | 21650m | 7.4m/s | -56.3°C | 0.0% | 0hPa | 0V | 00:00:00 | 00:00:00 | 00:00:00 | |
| LZ4TU-5 | 2026-09-04 00:13:55 | 43.96977 | 22.96357 | 139° | 11km/h | 21616m | 7.4m/s | -56.5°C | 0.0% | 0hPa | 0V | 00:00:00 | 00:00:00 | 00:00:00 | |
| LZ4TU-5 | 2026-09-04 00:13:45 | 43.97003 | 22.96387 | 213° | 7km/h | 21552m | 8.8m/s | -56.3°C | 0.0% | 0hPa | 0V | 00:00:00 | 00:00:00 | 00:00:00 | |
| LZ4TU-5 | 2026-09-04 00:13:40 | 43.97012 | 22.96378 | 157° | 15km/h | 21519m | 7.6m/s | -56.2°C | 0% | 0hPa | 0V | 00:00:00 | 00:00:00 | 00:00:00 | |
| LZ4TU-5 | 2026-09-04 00:12:10 | 43.97248 | 22.95740 | 104° | 26km/h | 20942m | 7.0m/s | -56.1°C | 0.0% | 0hPa | 0V | 00:00:00 | 00:00:00 | 00:00:00 | |
| LZ4TU-5 | 2026-09-04 00:12:05 | 43.97239 | 22.95698 | 60° | 24km/h | 20911m | 7.4m/s | -56.3°C | 0.0% | 0hPa | 0V | 00:00:00 | 00:00:00 | 00:00:00 | |
| LZ4TU-5 | 2026-09-04 00:11:55 | 43.97249 | 22.95636 | 64° | 15km/h | 20848m | 7.2m/s | -56.7°C | 0.0% | 0hPa | 0V | 00:00:00 | 00:00:00 | 00:00:00 | |
| LZ4TU-5 | 2026-09-04 00:11:51 | 43.97236 | 22.95613 | 66° | 29km/h | 20825m | 5.4m/s | -56.7°C | 0.0% | 0hPa | 0V | 00:00:00 | 00:00:00 | 00:00:00 | |
| LZ4TU-5 | 2026-09-04 00:10:16 | 43.97227 | 22.94958 | 55° | 35km/h | 20248m | 6.7m/s | -57.2°C | 0.0% | 0hPa | 0V | 00:00:00 | 00:00:00 | 00:00:00 | |
| LZ4TU-5 | 2026-09-04 00:10:12 | 43.97209 | 22.94929 | 43° | 26km/h | 20220m | 3.6m/s | -57.2°C | 0.0% | 0hPa | 0V | 00:00:00 | 00:00:00 | 00:00:00 | |
| LZ4TU-5 | 2026-09-04 00:10:01 | 43.97152 | 22.94841 | 40° | 22km/h | 20164m | 5.5m/s | -57.3°C | 0.0% | 0hPa | 0V | 00:00:00 | 00:00:00 | 00:00:00 | |
| LZ4TU-5 | 2026-09-04 00:09:56 | 43.97139 | 22.94813 | 69° | 26km/h | 20135m | 4.3m/s | -57.4°C | 0.0% | 0hPa | 0V | 00:00:00 | 00:00:00 | 00:00:00 | |
| LZ4TU-5 | 2026-09-04 00:08:18 | 43.96995 | 22.94812 | 83° | 18km/h | 19528m | 7.2m/s | -55.4°C | 0.0% | 0hPa | 0V | 00:00:00 | 00:00:00 | 00:00:00 | |
| LZ4TU-5 | 2026-09-04 00:08:13 | 43.96999 | 22.94795 | 151° | 20km/h | 19503m | 5.6m/s | -55.4°C | 0.0% | 0hPa | 0V | 00:00:00 | 00:00:00 | 00:00:00 | |
| LZ4TU-5 | 2026-09-04 00:08:03 | 43.97015 | 22.94728 | 44° | 20km/h | 19444m | 6.0m/s | -55.2°C | 0.0% | 0hPa | 0V | 00:00:00 | 00:00:00 | 00:00:00 | |
| LZ4TU-5 | 2026-09-04 00:07:58 | 43.97014 | 22.94703 | 102° | 20km/h | 19409m | 5.9m/s | -55.2°C | 0.0% | 0hPa | 0V | 00:00:00 | 00:00:00 | 00:00:00 | |
| LZ4TU-5 | 2026-09-04 00:06:27 | 43.96921 | 22.94217 | 340° | 4km/h | 18846m | 7.1m/s | -55.7°C | 0.0% | 0hPa | 0V | 00:00:00 | 00:00:00 | 00:00:00 | |
| LZ4TU-5 | 2026-09-04 00:06:22 | 43.96927 | 22.94219 | 140° | 16km/h | 18816m | 6.8m/s | -55.5°C | 0.0% | 0hPa | 0V | 00:00:00 | 00:00:00 | 00:00:00 | |
| LZ4TU-5 | 2026-09-04 00:06:12 | 43.96932 | 22.94186 | 155° | 11km/h | 18751m | 6.3m/s | -55.5°C | 0.0% | 0hPa | 0V | 00:00:00 | 00:00:00 | 00:00:00 | |
| LZ4TU-5 | 2026-09-04 00:06:07 | 43.96952 | 22.94157 | 128° | 33km/h | 18718m | 6.3m/s | -55.3°C | 0.0% | 0hPa | 0V | 00:00:00 | 00:00:00 | 00:00:00 | |
| LZ4TU-5 | 2026-09-04 00:04:43 | 43.97240 | 22.93082 | 103° | 33km/h | 18215m | 5.3m/s | -56.6°C | 0.0% | 0hPa | 0V | 00:00:00 | 00:00:00 | 00:00:00 | |
| LZ4TU-5 | 2026-09-04 00:04:39 | 43.97248 | 22.93002 | 97° | 55km/h | 18187m | 5.9m/s | -56.7°C | 0.0% | 0hPa | 0V | 00:00:00 | 00:00:00 | 00:00:00 | |
| LZ4TU-5 | 2026-09-04 00:04:29 | 43.97246 | 22.92873 | 94° | 44km/h | 18136m | 4.3m/s | -56.5°C | 0.0% | 0hPa | 0V | 00:00:00 | 00:00:00 | 00:00:00 | |
| LZ4TU-5 | 2026-09-04 00:04:25 | 43.97242 | 22.92790 | 85° | 42km/h | 18108m | 5.1m/s | -56.3°C | 0.0% | 0hPa | 0V | 00:00:00 | 00:00:00 | 00:00:00 | |
| LZ4TU-5 | 2026-09-04 00:01:00 | 43.97640 | 22.90477 | 120° | 33km/h | 16892m | 5.1m/s | -56.1°C | 0.2% | 0hPa | 0V | 00:00:00 | 00:00:00 | 00:00:00 | |
| LZ4TU-5 | 2026-09-04 00:00:49 | 43.97666 | 22.90386 | 104° | 18km/h | 16834m | 4.9m/s | -55.7°C | 0.2% | 0hPa | 0V | 00:00:00 | 00:00:00 | 00:00:00 | |
| LZ4TU-5 | 2026-09-04 00:00:44 | 43.97680 | 22.90349 | 98° | 33km/h | 16807m | 6.6m/s | -55.7°C | 0% | 0hPa | 0V | 00:00:00 | 00:00:00 | 00:00:00 | |
| LZ4TU-5 | 2026-09-03 23:59:23 | 43.97964 | 22.89622 | 123° | 60km/h | 16302m | 9.9m/s | -54.6°C | 0.9% | 0hPa | 0V | 00:00:00 | 00:00:00 | 00:00:00 | |
| LZ4TU-5 | 2026-09-03 23:59:18 | 43.98016 | 22.89545 | 133° | 64km/h | 16267m | 6.6m/s | -54.7°C | 1.0% | 0hPa | 0V | 00:00:00 | 00:00:00 | 00:00:00 | |
| LZ4TU-5 | 2026-09-03 23:59:09 | 43.98090 | 22.89385 | 126° | 60km/h | 16214m | 5.3m/s | -54.5°C | 1.0% | 0hPa | 0V | 00:00:00 | 00:00:00 | 00:00:00 | |
| LZ4TU-5 | 2026-09-03 23:59:04 | 43.98137 | 22.89295 | 119° | 62km/h | 16184m | 4.8m/s | -54.6°C | 1.0% | 0hPa | 0V | 00:00:00 | 00:00:00 | 00:00:00 | |
| LZ4TU-5 | 2026-09-03 23:57:38 | 43.98490 | 22.87572 | 114° | 47km/h | 15687m | 6.2m/s | -56.2°C | 1.5% | 0hPa | 0V | 00:00:00 | 00:00:00 | 00:00:00 | |
| LZ4TU-5 | 2026-09-03 23:57:33 | 43.98518 | 22.87480 | 116° | 62km/h | 15662m | 4.3m/s | -56.3°C | 1.5% | 0hPa | 0V | 00:00:00 | 00:00:00 | 00:00:00 | |
| LZ4TU-5 | 2026-09-03 23:57:23 | 43.98596 | 22.87315 | 120° | 57km/h | 15610m | 4.6m/s | -57.6°C | 1.7% | 0hPa | 0V | 00:00:00 | 00:00:00 | 00:00:00 | |
| LZ4TU-5 | 2026-09-03 23:57:18 | 43.98625 | 22.87218 | 122° | 64km/h | 15585m | 4.5m/s | -57.6°C | 1.7% | 0hPa | 0V | 00:00:00 | 00:00:00 | 00:00:00 | |
| LZ4TU-5 | 2026-09-03 23:55:42 | 43.99099 | 22.85622 | 111° | 49km/h | 15061m | 4.4m/s | -57.2°C | 2.2% | 0hPa | 0V | 00:00:00 | 00:00:00 | 00:00:00 | |
| LZ4TU-5 | 2026-09-03 23:55:38 | 43.99126 | 22.85553 | 120° | 58km/h | 15037m | 6.4m/s | -57.1°C | 2.2% | 0hPa | 0V | 00:00:00 | 00:00:00 | 00:00:00 | |
| LZ4TU-5 | 2026-09-03 23:55:29 | 43.99169 | 22.85414 | 111° | 47km/h | 14986m | 5.8m/s | -56.8°C | 2.2% | 0hPa | 0V | 00:00:00 | 00:00:00 | 00:00:00 | |
| LZ4TU-5 | 2026-09-03 23:55:25 | 43.99184 | 22.85349 | 104° | 44km/h | 14960m | 5.8m/s | -56.7°C | 2.2% | 0hPa | 0V | 00:00:00 | 00:00:00 | 00:00:00 | |
| LZ4TU-5 | 2026-09-03 23:53:57 | 43.99493 | 22.84132 | 132° | 57km/h | 14386m | 6.6m/s | -53.6°C | 2.1% | 0hPa | 0V | 00:00:00 | 00:00:00 | 00:00:00 | |
| LZ4TU-5 | 2026-09-03 23:53:52 | 43.99538 | 22.84054 | 116° | 58km/h | 14348m | 7.6m/s | -53.5°C | 2.1% | 0hPa | 0V | 00:00:00 | 00:00:00 | 00:00:00 | |
| LZ4TU-5 | 2026-09-03 23:53:42 | 43.99610 | 22.83840 | 121° | 68km/h | 14270m | 7.5m/s | -53.5°C | 2.2% | 0hPa | 0V | 00:00:00 | 00:00:00 | 00:00:00 | |
| LZ4TU-5 | 2026-09-03 23:53:37 | 43.99634 | 22.83731 | 104° | 64km/h | 14231m | 6.6m/s | -53.5°C | 2.3% | 0hPa | 0V | 00:00:00 | 00:00:00 | 00:00:00 | |
| LZ4TU-5 | 2026-09-03 23:52:11 | 44.00007 | 22.82124 | 105° | 53km/h | 13622m | 4.2m/s | -50.7°C | 0% | 0hPa | 0V | 00:00:00 | 00:00:00 | 00:00:00 | |
| LZ4TU-5 | 2026-09-03 23:52:06 | 44.00021 | 22.82022 | 112° | 64km/h | 13586m | 7.4m/s | -50.4°C | 3.5% | 0hPa | 0V | 00:00:00 | 00:00:00 | 00:00:00 | |
| LZ4TU-5 | 2026-09-03 23:51:57 | 44.00056 | 22.81847 | 105° | 64km/h | 13526m | 7.3m/s | -49.9°C | 3.7% | 0hPa | 0V | 00:00:00 | 00:00:00 | 00:00:00 | |
| LZ4TU-5 | 2026-09-03 23:51:52 | 44.00088 | 22.81758 | 127° | 40km/h | 13486m | 9.4m/s | -49.8°C | 3.8% | 0hPa | 0V | 00:00:00 | 00:00:00 | 00:00:00 | |
| LZ4TU-5 | 2026-09-03 23:50:12 | 44.00921 | 22.79707 | 128° | 73km/h | 12854m | 5.4m/s | -51.7°C | 7.4% | 0hPa | 0V | 00:00:00 | 00:00:00 | 00:00:00 | |
| LZ4TU-5 | 2026-09-03 23:50:07 | 44.00970 | 22.79585 | 114° | 78km/h | 12829m | 2.2m/s | -51.5°C | 0% | 0hPa | 0V | 00:00:00 | 00:00:00 | 00:00:00 | |
| LZ4TU-5 | 2026-09-03 23:49:57 | 44.01055 | 22.79399 | 108° | 68km/h | 12768m | 6.0m/s | -51.2°C | 8.3% | 0hPa | 0V | 00:00:00 | 00:00:00 | 00:00:00 | |
| LZ4TU-5 | 2026-09-03 23:49:52 | 44.01100 | 22.79297 | 134° | 77km/h | 12735m | 7.5m/s | -51.0°C | 8.6% | 0hPa | 0V | 00:00:00 | 00:00:00 | 00:00:00 | |
| LZ4TU-5 | 2026-09-03 23:48:24 | 44.02399 | 22.77701 | 147° | 71km/h | 12217m | 4.5m/s | -51.1°C | 14.4% | 0hPa | 0V | 00:00:00 | 00:00:00 | 00:00:00 | |
| LZ4TU-5 | 2026-09-03 23:48:20 | 44.02465 | 22.77635 | 140° | 86km/h | 12188m | 8.3m/s | -51.0°C | 14.7% | 0hPa | 0V | 00:00:00 | 00:00:00 | 00:00:00 | |
| LZ4TU-5 | 2026-09-03 23:48:10 | 44.02607 | 22.77450 | 141° | 86km/h | 12126m | 4.6m/s | -51.7°C | 15.9% | 0hPa | 0V | 00:00:00 | 00:00:00 | 00:00:00 | |
| LZ4TU-5 | 2026-09-03 23:48:06 | 44.02663 | 22.77371 | 130° | 69km/h | 12103m | 5.1m/s | -51.6°C | 0% | 0hPa | 0V | 00:00:00 | 00:00:00 | 00:00:00 | |
| LZ4TU-5 | 2026-09-03 23:46:40 | 44.03695 | 22.75972 | 156° | 68km/h | 11549m | 6.8m/s | -51.7°C | 23.1% | 0hPa | 0V | 00:00:00 | 00:00:00 | 00:00:00 | |
| LZ4TU-5 | 2026-09-03 23:46:35 | 44.03771 | 22.75926 | 147° | 62km/h | 11518m | 7.1m/s | -51.6°C | 23.6% | 0hPa | 0V | 00:00:00 | 00:00:00 | 00:00:00 | |
| LZ4TU-5 | 2026-09-03 23:46:25 | 44.03913 | 22.75798 | 158° | 60km/h | 11462m | 6.1m/s | -51.3°C | 24.1% | 0hPa | 0V | 00:00:00 | 00:00:00 | 00:00:00 | |
| LZ4TU-5 | 2026-09-03 23:46:20 | 44.03984 | 22.75749 | 147° | 69km/h | 11433m | 5.7m/s | -51.4°C | 24.6% | 0hPa | 0V | 00:00:00 | 00:00:00 | 00:00:00 | |
| LZ4TU-5 | 2026-09-03 23:44:56 | 44.05281 | 22.74727 | 155° | 66km/h | 10908m | 5.4m/s | -52.2°C | 32.5% | 0hPa | 0V | 00:00:00 | 00:00:00 | 00:00:00 | |
| LZ4TU-5 | 2026-09-03 23:44:52 | 44.05348 | 22.74668 | 142° | 88km/h | 10883m | 6.3m/s | -52.1°C | 32.7% | 0hPa | 0V | 00:00:00 | 00:00:00 | 00:00:00 | |
| LZ4TU-5 | 2026-09-03 23:44:47 | 44.05418 | 22.74591 | 144° | 55km/h | 10853m | 6.0m/s | -51.9°C | 33.1% | 0hPa | 0V | 00:00:00 | 00:00:00 | 00:00:00 | |
| LZ4TU-5 | 2026-09-03 23:44:42 | 44.05485 | 22.74522 | 145° | 82km/h | 10826m | 5.4m/s | -51.8°C | 33.3% | 0hPa | 0V | 00:00:00 | 00:00:00 | 00:00:00 | |
| LZ4TU-5 | 2026-09-03 23:44:32 | 44.05626 | 22.74397 | 142° | 57km/h | 10773m | 5.1m/s | -51.7°C | 34.5% | 0hPa | 0V | 00:00:00 | 00:00:00 | 00:00:00 | |
| LZ4TU-5 | 2026-09-03 23:44:28 | 44.05684 | 22.74335 | 145° | 80km/h | 10747m | 6.7m/s | -51.5°C | 34.6% | 0hPa | 0V | 00:00:00 | 00:00:00 | 00:00:00 | |
| LZ4TU-5 | 2026-09-03 23:43:07 | 44.06921 | 22.73027 | 154° | 75km/h | 10256m | 6.3m/s | -49.7°C | 40.2% | 0hPa | 0V | 00:00:00 | 00:00:00 | 00:00:00 | |
| LZ4TU-5 | 2026-09-03 23:43:03 | 44.06972 | 22.72961 | 130° | 82km/h | 10233m | 5.2m/s | -49.6°C | 41.1% | 0hPa | 0V | 00:00:00 | 00:00:00 | 00:00:00 | |
| LZ4TU-5 | 2026-09-03 23:42:53 | 44.07127 | 22.72778 | 137° | 86km/h | 10185m | 5.8m/s | -49.4°C | 43.4% | 0hPa | 0V | 00:00:00 | 00:00:00 | 00:00:00 | |
| LZ4TU-5 | 2026-09-03 23:42:48 | 44.07215 | 22.72691 | 143° | 68km/h | 10159m | 5.7m/s | -49.3°C | 44.5% | 0hPa | 0V | 00:00:00 | 00:00:00 | 00:00:00 | |
| LZ4TU-5 | 2026-09-03 23:41:23 | 44.08564 | 22.70886 | 111° | 86km/h | 9671m | 5.9m/s | -45.9°C | 67.2% | 0hPa | 0V | 00:00:00 | 00:00:00 | 00:00:00 | |
| LZ4TU-5 | 2026-09-03 23:41:18 | 44.08635 | 22.70726 | 138° | 100km/h | 9641m | 9.0m/s | -45.6°C | 68.0% | 0hPa | 0V | 00:00:00 | 00:00:00 | 00:00:00 | |
| LZ4TU-5 | 2026-09-03 23:39:52 | 44.09911 | 22.68653 | 138° | 115km/h | 9105m | 3.8m/s | -40.8°C | 63.2% | 0hPa | 0V | 00:00:00 | 00:00:00 | 00:00:00 | |
| LZ4TU-5 | 2026-09-03 23:39:47 | 44.09986 | 22.68541 | 133° | 71km/h | 9071m | 4.4m/s | -40.5°C | 0% | 0hPa | 0V | 00:00:00 | 00:00:00 | 00:00:00 | |
| LZ4TU-5 | 2026-09-03 23:38:21 | 44.11449 | 22.66741 | 133° | 91km/h | 8587m | 4.3m/s | -36.3°C | 58.1% | 0hPa | 0V | 00:00:00 | 00:00:00 | 00:00:00 | |
| LZ4TU-5 | 2026-09-03 23:38:16 | 44.11544 | 22.66644 | 147° | 100km/h | 8556m | 5.6m/s | -36.1°C | 58.7% | 0hPa | 0V | 00:00:00 | 00:00:00 | 00:00:00 | |
| LZ4TU-5 | 2026-09-03 23:36:48 | 44.13226 | 22.64992 | 150° | 75km/h | 8085m | 5.2m/s | -32.2°C | 66.2% | 0hPa | 0V | 00:00:00 | 00:00:00 | 00:00:00 | |
| LZ4TU-5 | 2026-09-03 23:35:28 | 44.14506 | 22.63813 | 128° | 78km/h | 7528m | 6.2m/s | -27.9°C | 73.7% | 0hPa | 0V | 00:00:00 | 00:00:00 | 00:00:00 | |
| LZ4TU-5 | 2026-09-03 23:35:23 | 44.14553 | 22.63758 | 164° | 75km/h | 7504m | 6.3m/s | -27.6°C | 0% | 0hPa | 0V | 00:00:00 | 00:00:00 | 00:00:00 | |
| LZ4TU-5 | 2026-09-03 23:34:07 | 44.15572 | 22.62617 | 124° | 46km/h | 7042m | 7.9m/s | -23.7°C | 78.4% | 0hPa | 0V | 00:00:00 | 00:00:00 | 00:00:00 | |
| LZ4TU-5 | 2026-09-03 23:34:03 | 44.15617 | 22.62577 | 152° | 73km/h | 7018m | 5.5m/s | -23.5°C | 78.0% | 0hPa | 0V | 00:00:00 | 00:00:00 | 00:00:00 | |
| LZ4TU-5 | 2026-09-03 23:32:44 | 44.16477 | 22.61413 | 158° | 55km/h | 6553m | 5.3m/s | -19.7°C | 65.5% | 0hPa | 0V | 00:00:00 | 00:00:00 | 00:00:00 | |
| LZ4TU-5 | 2026-09-03 23:32:38 | 44.16530 | 22.61300 | 132° | 58km/h | 6515m | 7.2m/s | -19.5°C | 67.0% | 0hPa | 0V | 00:00:00 | 00:00:00 | 00:00:00 | |
| LZ4TU-5 | 2026-09-03 23:31:23 | 44.17285 | 22.60127 | 121° | 57km/h | 6050m | 8.0m/s | -16.2°C | 14.2% | 0hPa | 0V | 00:00:00 | 00:00:00 | 00:00:00 | |
| LZ4TU-5 | 2026-09-03 23:31:18 | 44.17348 | 22.60024 | 144° | 64km/h | 6017m | 6.4m/s | -16.0°C | 0% | 0hPa | 0V | 00:00:00 | 00:00:00 | 00:00:00 | |
| LZ4TU-5 | 2026-09-03 23:30:01 | 44.18226 | 22.58990 | 139° | 73km/h | 5568m | 6.2m/s | -13.6°C | 13.5% | 0hPa | 0V | 00:00:00 | 00:00:00 | 00:00:00 | |
| LZ4TU-5 | 2026-09-03 23:29:56 | 44.18271 | 22.58903 | 141° | 46km/h | 5539m | 5.9m/s | -13.4°C | 14.0% | 0hPa | 0V | 00:00:00 | 00:00:00 | 00:00:00 | |
| LZ4TU-5 | 2026-09-03 23:28:41 | 44.18898 | 22.58035 | 158° | 46km/h | 5060m | 6.4m/s | -10.0°C | 16.3% | 0hPa | 0V | 00:00:00 | 00:00:00 | 00:00:00 | |
| LZ4TU-5 | 2026-09-03 23:28:37 | 44.18930 | 22.58004 | 141° | 42km/h | 5032m | 7.3m/s | -9.9°C | 19.0% | 0hPa | 0V | 00:00:00 | 00:00:00 | 00:00:00 | |
| LZ4TU-5 | 2026-09-03 23:27:23 | 44.19429 | 22.57156 | 141° | 35km/h | 4561m | 6.7m/s | -7.5°C | 55.4% | 0hPa | 0V | 00:00:00 | 00:00:00 | 00:00:00 | |
| LZ4TU-5 | 2026-09-03 23:27:18 | 44.19447 | 22.57109 | 144° | 37km/h | 4531m | 6.8m/s | -7.2°C | 54.5% | 0hPa | 0V | 00:00:00 | 00:00:00 | 00:00:00 | |
| LZ4TU-5 | 2026-09-03 23:26:09 | 44.19967 | 22.56592 | 153° | 35km/h | 4100m | 6.8m/s | -4.2°C | 55.9% | 0hPa | 0V | 00:00:00 | 00:00:00 | 00:00:00 | |
| LZ4TU-5 | 2026-09-03 23:24:53 | 44.20495 | 22.56080 | 140° | 37km/h | 3661m | 7.6m/s | -3.2°C | 87.5% | 0hPa | 0V | 00:00:00 | 00:00:00 | 00:00:00 | |
| LZ4TU-5 | 2026-09-03 23:24:48 | 44.20518 | 22.56027 | 142° | 46km/h | 3637m | 4.3m/s | -3.0°C | 0% | 0hPa | 0V | 00:00:00 | 00:00:00 | 00:00:00 | |
| LZ4TU-5 | 2026-09-03 23:23:44 | 44.20776 | 22.55662 | 179° | 26km/h | 3292m | 5.5m/s | -0.2°C | 76.8% | 0hPa | 0V | 00:00:00 | 00:00:00 | 00:00:00 | |
| LZ4TU-5 | 2026-09-03 23:23:39 | 44.20791 | 22.55651 | 118° | 27km/h | 3268m | 4.2m/s | -0.2°C | 78.4% | 0hPa | 0V | 00:00:00 | 00:00:00 | 00:00:00 | |
| LZ4TU-5 | 2026-09-03 23:22:35 | 44.20992 | 22.55475 | 151° | 20km/h | 2920m | 7.1m/s | 2.7°C | 65.7% | 0hPa | 0V | 00:00:00 | 00:00:00 | 00:00:00 | |
| LZ4TU-5 | 2026-09-03 23:22:31 | 44.21012 | 22.55459 | 168° | 16km/h | 2898m | 5.0m/s | 3.0°C | 0% | 0hPa | 0V | 00:00:00 | 00:00:00 | 00:00:00 | |
| LZ4TU-5 | 2026-09-03 23:21:27 | 44.21409 | 22.55217 | 183° | 26km/h | 2522m | 5.3m/s | 6.3°C | 57.5% | 0hPa | 0V | 00:00:00 | 00:00:00 | 00:00:00 | |
| LZ4TU-5 | 2026-09-03 23:21:23 | 44.21432 | 22.55197 | 142° | 37km/h | 2498m | 6.7m/s | 6.5°C | 57.1% | 0hPa | 0V | 00:00:00 | 00:00:00 | 00:00:00 | |
| LZ4TU-5 | 2026-09-03 23:20:14 | 44.21937 | 22.54750 | 141° | 27km/h | 2067m | 6.1m/s | 10.3°C | 53.1% | 0hPa | 0V | 00:00:00 | 00:00:00 | 00:00:00 | |
| LZ4TU-5 | 2026-09-03 23:20:10 | 44.21964 | 22.54732 | 154° | 35km/h | 2042m | 6.6m/s | 10.6°C | 52.5% | 0hPa | 0V | 00:00:00 | 00:00:00 | 00:00:00 | |
| LZ4TU-5 | 2026-09-03 23:19:07 | 44.22329 | 22.54381 | 146° | 37km/h | 1645m | 8.0m/s | 14.3°C | 44.0% | 0hPa | 0V | 00:00:00 | 00:00:00 | 00:00:00 | |
| LZ4TU-5 | 2026-09-03 23:19:03 | 44.22355 | 22.54368 | 157° | 22km/h | 1622m | 4.2m/s | 14.6°C | 43.5% | 0hPa | 0V | 00:00:00 | 00:00:00 | 00:00:00 | |
| LZ4TU-5 | 2026-09-03 23:18:00 | 44.22725 | 22.54096 | 139° | 26km/h | 1224m | 5.2m/s | 18.2°C | 38.0% | 0hPa | 0V | 00:00:00 | 00:00:00 | 00:00:00 | |
| LZ4TU-5 | 2026-09-03 23:17:56 | 44.22751 | 22.54082 | 163° | 31km/h | 1198m | 7.1m/s | 18.5°C | 37.7% | 0hPa | 0V | 00:00:00 | 00:00:00 | 00:00:00 |